Airfield :
LOGIN :

Register | Disclaimer

   EN    FR    IT 

 










Legend :    VFR   Marginal VFR   IFR   Intensive IFR   Very Intensive IFR
Visi :
Ceiling :
>= 8 km
>= 3000ft
5 to 8 km
1000 to 3000 ft
1500m to 5 km
500 to 1000 ft
800 to 1500m
200 to 500 ft
< 800m
< 200 ft
Symbols :   Thunderstorms  Fog  Heavy snow  Heavy precipitations  Wind > 20 kt
SIGMETs :     Misc.  Thunderstorms  Icing  Turbulence  Mountain Waves  Volcanic Ashes






- Airport Elevation : 1234 ft
- IATA code : LUX


ELLX - Luxembourg Findel

CURRENT METAR :
  • 280450Z 17007KT 0100 R24/0600N -RADZ FG VV002 03/03 Q1007 NOSIG

EXPIRED METARs :
  • 280420Z 18007KT 150V220 0100 R24/0450N -RADZ FG VV002 03/03 Q1007 NOSIG
  • 280350Z 18007KT 0100 R24/0400V0500N -RADZ FG VV002 02/02 Q1008 NOSIG
  • 280320Z 18008KT 0100 R24/0400N -DZ FG VV002 02/02 Q1009 NOSIG
  • 270250Z 20008KT 170V230 1200 R24/P2000N SN SCT003 BKN005 M01/M01 Q1017 NOSIG

TAF COR TAF ELLX
Valid from the 28 at 00:00 until the 29 at 06:00 UTC


272300Z 2800/2906 20005KT 0700 FG OVC002
BECMG 2800/2802 1500 RADZ BKN004
TEMPO 2800/2809 2500 BKN005
BECMG 2810/2812 26012KT 6000 NSW SCT010 BKN012
TEMPO 2812/2819 26015G25KT BKN015
BECMG 2900/2903 2500 BR BKN005
ATIS : +352 4798 27300
Met : +352 4798 27010 / 27050



MET'MAP, your aeronautical weather chart ! - Copyright ORBIFLY December 2007 - Disclaimer

ORBIFLY MET'MAP TEAM :

Programming & Development : Alexandra Zaïnal
Concept & original design : Baudouin d'Aumeries
Assistance for programming : Marc-Olivier Méhu
Technical & hardware support : Manuel Goepfert

Contact : metmap@orbifly.com




SOURCES & CREDITS :

   NOAA